sensor_id;sensor_type;location;lat;lon;timestamp;P1;durP1;ratioP1;P2;durP2;ratioP2
13698;SDS011;6921;53.642;9.956;2023-07-31T00:00:16;9.25;;;3.25;;
13698;SDS011;6921;53.642;9.956;2023-07-31T00:02:19;5.40;;;3.10;;
13698;SDS011;6921;53.642;9.956;2023-07-31T00:04:24;5.50;;;2.65;;
13698;SDS011;6921;53.642;9.956;2023-07-31T00:06:26;7.47;;;2.80;;
13698;SDS011;6921;53.642;9.956;2023-07-31T00:08:31;5.97;;;2.60;;
13698;SDS011;6921;53.642;9.956;2023-07-31T00:10:34;8.15;;;3.13;;
13698;SDS011;6921;53.642;9.956;2023-07-31T00:12:38;5.57;;;2.65;;
13698;SDS011;6921;53.642;9.956;2023-07-31T00:14:43;6.03;;;2.83;;
13698;SDS011;6921;53.642;9.956;2023-07-31T00:16:47;5.88;;;2.90;;
13698;SDS011;6921;53.642;9.956;2023-07-31T00:18:52;5.55;;;2.65;;
13698;SDS011;6921;53.642;9.956;2023-07-31T00:20:56;7.78;;;2.83;;
13698;SDS011;6921;53.642;9.956;2023-07-31T00:23:00;6.45;;;2.78;;
13698;SDS011;6921;53.642;9.956;2023-07-31T00:25:04;7.95;;;2.75;;
13698;SDS011;6921;53.642;9.956;2023-07-31T00:27:08;9.32;;;2.75;;
13698;SDS011;6921;53.642;9.956;2023-07-31T00:29:14;8.57;;;2.65;;
13698;SDS011;6921;53.642;9.956;2023-07-31T00:31:18;7.55;;;2.90;;
13698;SDS011;6921;53.642;9.956;2023-07-31T00:33:23;8.43;;;3.00;;
13698;SDS011;6921;53.642;9.956;2023-07-31T00:35:29;3.90;;;2.40;;
13698;SDS011;6921;53.642;9.956;2023-07-31T00:38:07;4.60;;;2.55;;
13698;SDS011;6921;53.642;9.956;2023-07-31T00:40:11;8.80;;;2.47;;
13698;SDS011;6921;53.642;9.956;2023-07-31T00:42:15;6.68;;;2.35;;
13698;SDS011;6921;53.642;9.956;2023-07-31T00:44:18;7.50;;;2.72;;
13698;SDS011;6921;53.642;9.956;2023-07-31T00:46:21;5.13;;;2.58;;
13698;SDS011;6921;53.642;9.956;2023-07-31T00:48:25;6.47;;;2.40;;
13698;SDS011;6921;53.642;9.956;2023-07-31T00:50:29;11.65;;;2.80;;
13698;SDS011;6921;53.642;9.956;2023-07-31T00:52:33;7.07;;;2.78;;
13698;SDS011;6921;53.642;9.956;2023-07-31T00:54:40;5.30;;;2.55;;
13698;SDS011;6921;53.642;9.956;2023-07-31T00:56:47;5.40;;;2.45;;
13698;SDS011;6921;53.642;9.956;2023-07-31T00:58:50;4.07;;;2.80;;
13698;SDS011;6921;53.642;9.956;2023-07-31T01:00:54;8.07;;;2.80;;
13698;SDS011;6921;53.642;9.956;2023-07-31T01:02:57;5.13;;;2.42;;
13698;SDS011;6921;53.642;9.956;2023-07-31T01:05:02;5.63;;;2.33;;
13698;SDS011;6921;53.642;9.956;2023-07-31T01:07:09;7.40;;;2.92;;
13698;SDS011;6921;53.642;9.956;2023-07-31T01:09:25;6.78;;;2.83;;
13698;SDS011;6921;53.642;9.956;2023-07-31T01:11:42;5.15;;;2.30;;
13698;SDS011;6921;53.642;9.956;2023-07-31T01:13:50;2.60;;;2.35;;
13698;SDS011;6921;53.642;9.956;2023-07-31T01:15:54;9.38;;;2.85;;
13698;SDS011;6921;53.642;9.956;2023-07-31T01:17:59;5.88;;;2.90;;
13698;SDS011;6921;53.642;9.956;2023-07-31T01:20:02;6.15;;;2.50;;
13698;SDS011;6921;53.642;9.956;2023-07-31T01:22:18;5.63;;;2.80;;
13698;SDS011;6921;53.642;9.956;2023-07-31T01:24:35;5.40;;;2.60;;
13698;SDS011;6921;53.642;9.956;2023-07-31T01:26:55;6.03;;;2.88;;
13698;SDS011;6921;53.642;9.956;2023-07-31T01:29:01;8.18;;;2.60;;
13698;SDS011;6921;53.642;9.956;2023-07-31T01:31:11;9.32;;;2.45;;
13698;SDS011;6921;53.642;9.956;2023-07-31T01:33:19;7.75;;;3.25;;
13698;SDS011;6921;53.642;9.956;2023-07-31T01:35:24;7.53;;;2.78;;
13698;SDS011;6921;53.642;9.956;2023-07-31T01:37:28;9.75;;;3.05;;
13698;SDS011;6921;53.642;9.956;2023-07-31T01:39:32;4.80;;;2.95;;
13698;SDS011;6921;53.642;9.956;2023-07-31T01:41:35;6.25;;;2.97;;
13698;SDS011;6921;53.642;9.956;2023-07-31T01:43:41;8.57;;;2.83;;
13698;SDS011;6921;53.642;9.956;2023-07-31T01:45:45;10.32;;;3.22;;
13698;SDS011;6921;53.642;9.956;2023-07-31T01:47:49;6.20;;;3.38;;
13698;SDS011;6921;53.642;9.956;2023-07-31T01:49:53;5.90;;;3.50;;
13698;SDS011;6921;53.642;9.956;2023-07-31T01:51:56;7.53;;;3.47;;
13698;SDS011;6921;53.642;9.956;2023-07-31T01:54:00;8.48;;;3.17;;
13698;SDS011;6921;53.642;9.956;2023-07-31T01:56:12;7.22;;;3.33;;
13698;SDS011;6921;53.642;9.956;2023-07-31T01:58:15;6.55;;;3.40;;
13698;SDS011;6921;53.642;9.956;2023-07-31T02:00:21;7.38;;;2.80;;
13698;SDS011;6921;53.642;9.956;2023-07-31T02:02:25;6.47;;;2.95;;
13698;SDS011;6921;53.642;9.956;2023-07-31T02:04:29;7.32;;;3.28;;
13698;SDS011;6921;53.642;9.956;2023-07-31T02:06:33;6.85;;;3.28;;
13698;SDS011;6921;53.642;9.956;2023-07-31T02:08:38;6.15;;;3.15;;
13698;SDS011;6921;53.642;9.956;2023-07-31T02:10:43;6.38;;;3.25;;
13698;SDS011;6921;53.642;9.956;2023-07-31T02:12:46;7.00;;;3.17;;
13698;SDS011;6921;53.642;9.956;2023-07-31T02:14:50;7.18;;;3.70;;
13698;SDS011;6921;53.642;9.956;2023-07-31T02:16:55;6.82;;;3.15;;
13698;SDS011;6921;53.642;9.956;2023-07-31T02:18:58;6.53;;;3.80;;
13698;SDS011;6921;53.642;9.956;2023-07-31T02:21:02;9.55;;;3.55;;
13698;SDS011;6921;53.642;9.956;2023-07-31T02:23:10;8.65;;;3.60;;
13698;SDS011;6921;53.642;9.956;2023-07-31T02:25:13;6.55;;;3.60;;
13698;SDS011;6921;53.642;9.956;2023-07-31T02:27:17;7.50;;;3.50;;
13698;SDS011;6921;53.642;9.956;2023-07-31T02:29:21;6.38;;;3.30;;
13698;SDS011;6921;53.642;9.956;2023-07-31T02:31:24;5.80;;;3.42;;
13698;SDS011;6921;53.642;9.956;2023-07-31T02:33:29;11.43;;;3.80;;
13698;SDS011;6921;53.642;9.956;2023-07-31T02:35:33;6.40;;;3.42;;
13698;SDS011;6921;53.642;9.956;2023-07-31T02:37:36;6.93;;;3.40;;
13698;SDS011;6921;53.642;9.956;2023-07-31T02:39:40;6.30;;;3.50;;
13698;SDS011;6921;53.642;9.956;2023-07-31T02:41:43;5.82;;;3.45;;
13698;SDS011;6921;53.642;9.956;2023-07-31T02:43:47;6.50;;;3.67;;
13698;SDS011;6921;53.642;9.956;2023-07-31T02:45:51;9.55;;;3.40;;
13698;SDS011;6921;53.642;9.956;2023-07-31T02:47:54;9.18;;;4.00;;
13698;SDS011;6921;53.642;9.956;2023-07-31T02:49:59;8.82;;;3.88;;
13698;SDS011;6921;53.642;9.956;2023-07-31T02:52:03;8.13;;;3.97;;
13698;SDS011;6921;53.642;9.956;2023-07-31T02:54:07;7.57;;;4.07;;
13698;SDS011;6921;53.642;9.956;2023-07-31T02:56:11;8.10;;;3.53;;
13698;SDS011;6921;53.642;9.956;2023-07-31T02:58:15;9.52;;;3.85;;
13698;SDS011;6921;53.642;9.956;2023-07-31T03:00:19;7.13;;;3.42;;
13698;SDS011;6921;53.642;9.956;2023-07-31T03:02:22;9.38;;;4.13;;
13698;SDS011;6921;53.642;9.956;2023-07-31T03:04:28;7.13;;;3.78;;
13698;SDS011;6921;53.642;9.956;2023-07-31T03:06:33;7.15;;;3.92;;
13698;SDS011;6921;53.642;9.956;2023-07-31T03:08:36;5.70;;;3.33;;
13698;SDS011;6921;53.642;9.956;2023-07-31T03:10:40;8.68;;;3.80;;
13698;SDS011;6921;53.642;9.956;2023-07-31T03:12:46;5.50;;;3.28;;
13698;SDS011;6921;53.642;9.956;2023-07-31T03:14:50;5.30;;;3.38;;
13698;SDS011;6921;53.642;9.956;2023-07-31T03:16:54;7.07;;;3.75;;
13698;SDS011;6921;53.642;9.956;2023-07-31T03:18:58;6.38;;;4.55;;
13698;SDS011;6921;53.642;9.956;2023-07-31T03:21:02;6.28;;;3.65;;
13698;SDS011;6921;53.642;9.956;2023-07-31T03:23:07;6.13;;;4.10;;
13698;SDS011;6921;53.642;9.956;2023-07-31T03:25:11;8.88;;;4.35;;
13698;SDS011;6921;53.642;9.956;2023-07-31T03:27:15;5.53;;;3.47;;
13698;SDS011;6921;53.642;9.956;2023-07-31T03:29:18;6.80;;;3.80;;
13698;SDS011;6921;53.642;9.956;2023-07-31T03:31:25;6.05;;;3.78;;
13698;SDS011;6921;53.642;9.956;2023-07-31T03:33:31;7.18;;;4.50;;
13698;SDS011;6921;53.642;9.956;2023-07-31T03:35:34;9.77;;;3.95;;
13698;SDS011;6921;53.642;9.956;2023-07-31T03:37:38;8.45;;;3.80;;
13698;SDS011;6921;53.642;9.956;2023-07-31T03:39:43;5.45;;;3.50;;
13698;SDS011;6921;53.642;9.956;2023-07-31T03:41:47;8.27;;;3.92;;
13698;SDS011;6921;53.642;9.956;2023-07-31T03:43:52;7.78;;;3.90;;
13698;SDS011;6921;53.642;9.956;2023-07-31T03:45:57;7.80;;;4.35;;
13698;SDS011;6921;53.642;9.956;2023-07-31T03:48:03;6.85;;;4.05;;
13698;SDS011;6921;53.642;9.956;2023-07-31T03:50:07;6.80;;;3.72;;
13698;SDS011;6921;53.642;9.956;2023-07-31T03:52:13;8.95;;;4.10;;
13698;SDS011;6921;53.642;9.956;2023-07-31T03:54:17;7.57;;;4.63;;
13698;SDS011;6921;53.642;9.956;2023-07-31T03:56:23;7.03;;;4.10;;
13698;SDS011;6921;53.642;9.956;2023-07-31T03:58:27;5.75;;;3.85;;
13698;SDS011;6921;53.642;9.956;2023-07-31T04:00:30;5.95;;;3.90;;
13698;SDS011;6921;53.642;9.956;2023-07-31T04:02:36;8.05;;;4.32;;
13698;SDS011;6921;53.642;9.956;2023-07-31T04:04:41;10.00;;;4.03;;
13698;SDS011;6921;53.642;9.956;2023-07-31T04:06:45;7.22;;;4.00;;
13698;SDS011;6921;53.642;9.956;2023-07-31T04:08:50;6.78;;;3.75;;
13698;SDS011;6921;53.642;9.956;2023-07-31T04:10:54;6.47;;;3.90;;
13698;SDS011;6921;53.642;9.956;2023-07-31T04:12:59;4.55;;;3.63;;
13698;SDS011;6921;53.642;9.956;2023-07-31T04:15:03;8.25;;;3.85;;
13698;SDS011;6921;53.642;9.956;2023-07-31T04:17:07;4.47;;;3.40;;
13698;SDS011;6921;53.642;9.956;2023-07-31T04:19:13;5.10;;;3.90;;
13698;SDS011;6921;53.642;9.956;2023-07-31T04:21:18;6.22;;;3.67;;
13698;SDS011;6921;53.642;9.956;2023-07-31T04:23:23;4.80;;;3.88;;
13698;SDS011;6921;53.642;9.956;2023-07-31T04:25:26;5.18;;;3.90;;
13698;SDS011;6921;53.642;9.956;2023-07-31T04:27:30;3.97;;;3.60;;
13698;SDS011;6921;53.642;9.956;2023-07-31T04:29:35;5.45;;;3.80;;
13698;SDS011;6921;53.642;9.956;2023-07-31T04:31:38;7.32;;;4.03;;
13698;SDS011;6921;53.642;9.956;2023-07-31T04:33:42;5.85;;;4.20;;
13698;SDS011;6921;53.642;9.956;2023-07-31T04:35:48;4.90;;;4.03;;
13698;SDS011;6921;53.642;9.956;2023-07-31T04:37:53;7.13;;;4.03;;
13698;SDS011;6921;53.642;9.956;2023-07-31T04:39:58;5.10;;;3.78;;
13698;SDS011;6921;53.642;9.956;2023-07-31T04:42:02;5.15;;;3.60;;
13698;SDS011;6921;53.642;9.956;2023-07-31T04:44:06;5.90;;;3.47;;
13698;SDS011;6921;53.642;9.956;2023-07-31T04:46:10;4.07;;;3.42;;
13698;SDS011;6921;53.642;9.956;2023-07-31T04:48:15;5.05;;;3.30;;
13698;SDS011;6921;53.642;9.956;2023-07-31T04:50:18;4.75;;;3.80;;
13698;SDS011;6921;53.642;9.956;2023-07-31T04:52:22;4.00;;;3.60;;
13698;SDS011;6921;53.642;9.956;2023-07-31T04:54:26;3.80;;;3.13;;
13698;SDS011;6921;53.642;9.956;2023-07-31T04:56:29;4.43;;;3.42;;
13698;SDS011;6921;53.642;9.956;2023-07-31T04:58:35;3.72;;;3.00;;
13698;SDS011;6921;53.642;9.956;2023-07-31T05:00:38;5.65;;;3.20;;
13698;SDS011;6921;53.642;9.956;2023-07-31T05:02:43;4.47;;;3.28;;
13698;SDS011;6921;53.642;9.956;2023-07-31T05:04:47;3.30;;;3.00;;
13698;SDS011;6921;53.642;9.956;2023-07-31T05:06:50;3.63;;;2.80;;
13698;SDS011;6921;53.642;9.956;2023-07-31T05:08:56;4.70;;;3.10;;
13698;SDS011;6921;53.642;9.956;2023-07-31T05:11:20;6.28;;;3.08;;
13698;SDS011;6921;53.642;9.956;2023-07-31T05:13:23;4.13;;;3.20;;
13698;SDS011;6921;53.642;9.956;2023-07-31T05:15:27;2.95;;;2.75;;
13698;SDS011;6921;53.642;9.956;2023-07-31T05:17:31;2.75;;;2.50;;
13698;SDS011;6921;53.642;9.956;2023-07-31T05:19:35;3.45;;;3.10;;
13698;SDS011;6921;53.642;9.956;2023-07-31T05:21:39;3.17;;;2.88;;
13698;SDS011;6921;53.642;9.956;2023-07-31T05:23:43;2.80;;;2.55;;
13698;SDS011;6921;53.642;9.956;2023-07-31T05:26:03;3.40;;;2.80;;
13698;SDS011;6921;53.642;9.956;2023-07-31T05:28:07;3.67;;;2.70;;
13698;SDS011;6921;53.642;9.956;2023-07-31T05:30:11;3.80;;;2.70;;
13698;SDS011;6921;53.642;9.956;2023-07-31T05:32:15;3.28;;;2.97;;
13698;SDS011;6921;53.642;9.956;2023-07-31T05:34:20;3.92;;;3.15;;
13698;SDS011;6921;53.642;9.956;2023-07-31T05:36:26;6.03;;;2.90;;
13698;SDS011;6921;53.642;9.956;2023-07-31T05:38:35;3.45;;;3.10;;
13698;SDS011;6921;53.642;9.956;2023-07-31T05:40:44;3.15;;;2.67;;
13698;SDS011;6921;53.642;9.956;2023-07-31T05:42:53;3.38;;;2.95;;
13698;SDS011;6921;53.642;9.956;2023-07-31T05:44:58;3.17;;;2.85;;
13698;SDS011;6921;53.642;9.956;2023-07-31T05:47:02;3.72;;;2.67;;
13698;SDS011;6921;53.642;9.956;2023-07-31T05:49:07;3.00;;;2.80;;
13698;SDS011;6921;53.642;9.956;2023-07-31T05:51:11;3.17;;;2.80;;
13698;SDS011;6921;53.642;9.956;2023-07-31T05:53:16;3.97;;;2.95;;
13698;SDS011;6921;53.642;9.956;2023-07-31T05:55:21;3.42;;;2.88;;
13698;SDS011;6921;53.642;9.956;2023-07-31T05:57:25;3.53;;;2.83;;
13698;SDS011;6921;53.642;9.956;2023-07-31T05:59:29;2.92;;;2.72;;
13698;SDS011;6921;53.642;9.956;2023-07-31T06:01:37;3.53;;;2.80;;
13698;SDS011;6921;53.642;9.956;2023-07-31T06:03:40;3.05;;;2.80;;
13698;SDS011;6921;53.642;9.956;2023-07-31T06:05:48;3.20;;;3.00;;
13698;SDS011;6921;53.642;9.956;2023-07-31T06:07:54;3.05;;;2.60;;
13698;SDS011;6921;53.642;9.956;2023-07-31T06:10:04;4.82;;;2.97;;
13698;SDS011;6921;53.642;9.956;2023-07-31T06:12:11;3.22;;;2.90;;
13698;SDS011;6921;53.642;9.956;2023-07-31T06:14:18;3.38;;;3.08;;
13698;SDS011;6921;53.642;9.956;2023-07-31T06:16:29;3.72;;;2.83;;
13698;SDS011;6921;53.642;9.956;2023-07-31T06:18:36;3.35;;;3.05;;
13698;SDS011;6921;53.642;9.956;2023-07-31T06:20:47;3.38;;;3.08;;
13698;SDS011;6921;53.642;9.956;2023-07-31T06:22:59;4.00;;;2.80;;
13698;SDS011;6921;53.642;9.956;2023-07-31T06:25:09;4.05;;;3.00;;
13698;SDS011;6921;53.642;9.956;2023-07-31T06:27:16;3.10;;;2.80;;
13698;SDS011;6921;53.642;9.956;2023-07-31T06:29:19;3.83;;;3.00;;
13698;SDS011;6921;53.642;9.956;2023-07-31T06:31:22;3.00;;;2.67;;
13698;SDS011;6921;53.642;9.956;2023-07-31T06:33:29;3.13;;;2.80;;
13698;SDS011;6921;53.642;9.956;2023-07-31T06:35:35;3.00;;;2.80;;
13698;SDS011;6921;53.642;9.956;2023-07-31T06:37:41;3.70;;;2.70;;
13698;SDS011;6921;53.642;9.956;2023-07-31T06:39:49;3.10;;;2.88;;
13698;SDS011;6921;53.642;9.956;2023-07-31T06:41:57;3.22;;;2.92;;
13698;SDS011;6921;53.642;9.956;2023-07-31T06:44:01;2.90;;;2.60;;
13698;SDS011;6921;53.642;9.956;2023-07-31T06:46:05;3.00;;;2.80;;
13698;SDS011;6921;53.642;9.956;2023-07-31T06:48:10;3.28;;;2.88;;
13698;SDS011;6921;53.642;9.956;2023-07-31T06:50:14;3.50;;;3.20;;
13698;SDS011;6921;53.642;9.956;2023-07-31T06:52:24;3.28;;;3.08;;
13698;SDS011;6921;53.642;9.956;2023-07-31T06:54:28;3.22;;;3.03;;
13698;SDS011;6921;53.642;9.956;2023-07-31T06:56:31;3.30;;;3.00;;
13698;SDS011;6921;53.642;9.956;2023-07-31T06:58:37;3.60;;;3.13;;
13698;SDS011;6921;53.642;9.956;2023-07-31T07:00:42;3.55;;;3.25;;
13698;SDS011;6921;53.642;9.956;2023-07-31T07:02:46;3.53;;;3.22;;
13698;SDS011;6921;53.642;9.956;2023-07-31T07:04:50;3.78;;;3.28;;
13698;SDS011;6921;53.642;9.956;2023-07-31T07:06:55;4.65;;;3.50;;
13698;SDS011;6921;53.642;9.956;2023-07-31T07:08:59;3.90;;;3.60;;
13698;SDS011;6921;53.642;9.956;2023-07-31T07:11:12;3.40;;;3.10;;
13698;SDS011;6921;53.642;9.956;2023-07-31T07:13:17;4.10;;;3.70;;
13698;SDS011;6921;53.642;9.956;2023-07-31T07:15:25;3.75;;;3.45;;
13698;SDS011;6921;53.642;9.956;2023-07-31T07:17:30;3.72;;;3.42;;
13698;SDS011;6921;53.642;9.956;2023-07-31T07:19:40;3.65;;;3.35;;
13698;SDS011;6921;53.642;9.956;2023-07-31T07:21:43;3.28;;;2.97;;
13698;SDS011;6921;53.642;9.956;2023-07-31T07:23:46;3.38;;;2.75;;
13698;SDS011;6921;53.642;9.956;2023-07-31T07:25:52;3.30;;;3.00;;
13698;SDS011;6921;53.642;9.956;2023-07-31T07:27:54;3.92;;;3.53;;
13698;SDS011;6921;53.642;9.956;2023-07-31T07:29:58;3.45;;;3.15;;
13698;SDS011;6921;53.642;9.956;2023-07-31T07:32:03;3.40;;;3.10;;
13698;SDS011;6921;53.642;9.956;2023-07-31T07:34:08;3.50;;;3.00;;
13698;SDS011;6921;53.642;9.956;2023-07-31T07:36:11;3.88;;;3.22;;
13698;SDS011;6921;53.642;9.956;2023-07-31T07:38:15;4.07;;;3.15;;
13698;SDS011;6921;53.642;9.956;2023-07-31T07:40:22;4.15;;;3.17;;
13698;SDS011;6921;53.642;9.956;2023-07-31T07:42:25;3.45;;;3.15;;
13698;SDS011;6921;53.642;9.956;2023-07-31T07:44:31;2.80;;;2.60;;
13698;SDS011;6921;53.642;9.956;2023-07-31T07:46:34;3.35;;;3.05;;
13698;SDS011;6921;53.642;9.956;2023-07-31T07:48:39;3.10;;;2.80;;
13698;SDS011;6921;53.642;9.956;2023-07-31T07:50:44;2.80;;;2.60;;
13698;SDS011;6921;53.642;9.956;2023-07-31T07:52:47;3.67;;;2.50;;
13698;SDS011;6921;53.642;9.956;2023-07-31T07:54:52;2.53;;;2.33;;
13698;SDS011;6921;53.642;9.956;2023-07-31T07:56:59;3.28;;;3.08;;
13698;SDS011;6921;53.642;9.956;2023-07-31T07:59:04;3.50;;;3.00;;
13698;SDS011;6921;53.642;9.956;2023-07-31T08:01:10;3.95;;;3.25;;
13698;SDS011;6921;53.642;9.956;2023-07-31T08:03:14;3.13;;;2.92;;
13698;SDS011;6921;53.642;9.956;2023-07-31T08:05:20;3.45;;;3.15;;
13698;SDS011;6921;53.642;9.956;2023-07-31T08:07:26;3.30;;;3.10;;
13698;SDS011;6921;53.642;9.956;2023-07-31T08:09:30;5.53;;;3.25;;
13698;SDS011;6921;53.642;9.956;2023-07-31T08:11:34;3.65;;;3.35;;
13698;SDS011;6921;53.642;9.956;2023-07-31T08:13:41;3.42;;;3.13;;
13698;SDS011;6921;53.642;9.956;2023-07-31T08:15:45;3.40;;;3.13;;
13698;SDS011;6921;53.642;9.956;2023-07-31T08:17:54;3.95;;;3.40;;
13698;SDS011;6921;53.642;9.956;2023-07-31T08:20:01;3.80;;;3.50;;
13698;SDS011;6921;53.642;9.956;2023-07-31T08:22:12;3.80;;;3.20;;
13698;SDS011;6921;53.642;9.956;2023-07-31T08:24:18;3.50;;;3.20;;
13698;SDS011;6921;53.642;9.956;2023-07-31T08:26:25;3.58;;;3.28;;
13698;SDS011;6921;53.642;9.956;2023-07-31T08:28:46;3.40;;;3.10;;
13698;SDS011;6921;53.642;9.956;2023-07-31T08:30:51;3.70;;;3.40;;
13698;SDS011;6921;53.642;9.956;2023-07-31T08:33:00;4.07;;;3.50;;
13698;SDS011;6921;53.642;9.956;2023-07-31T08:35:04;3.63;;;3.33;;
13698;SDS011;6921;53.642;9.956;2023-07-31T08:37:27;3.33;;;3.03;;
13698;SDS011;6921;53.642;9.956;2023-07-31T08:39:42;3.75;;;3.20;;
13698;SDS011;6921;53.642;9.956;2023-07-31T08:42:07;3.50;;;3.25;;
13698;SDS011;6921;53.642;9.956;2023-07-31T08:44:22;3.60;;;3.30;;
13698;SDS011;6921;53.642;9.956;2023-07-31T08:46:35;4.18;;;3.00;;
13698;SDS011;6921;53.642;9.956;2023-07-31T08:48:42;3.50;;;3.20;;
13698;SDS011;6921;53.642;9.956;2023-07-31T08:50:47;3.25;;;3.00;;
13698;SDS011;6921;53.642;9.956;2023-07-31T08:55:45;3.00;;;2.75;;
13698;SDS011;6921;53.642;9.956;2023-07-31T08:57:55;2.63;;;2.40;;
13698;SDS011;6921;53.642;9.956;2023-07-31T09:00:11;2.58;;;2.38;;
13698;SDS011;6921;53.642;9.956;2023-07-31T09:02:16;2.22;;;2.10;;
13698;SDS011;6921;53.642;9.956;2023-07-31T09:04:21;2.63;;;2.42;;
13698;SDS011;6921;53.642;9.956;2023-07-31T09:06:26;3.35;;;2.67;;
13698;SDS011;6921;53.642;9.956;2023-07-31T09:08:36;2.85;;;2.40;;
13698;SDS011;6921;53.642;9.956;2023-07-31T09:10:40;2.80;;;2.47;;
13698;SDS011;6921;53.642;9.956;2023-07-31T09:12:44;2.33;;;2.13;;
13698;SDS011;6921;53.642;9.956;2023-07-31T09:14:50;2.30;;;2.10;;
13698;SDS011;6921;53.642;9.956;2023-07-31T09:16:55;2.05;;;1.95;;
13698;SDS011;6921;53.642;9.956;2023-07-31T09:19:01;1.98;;;1.77;;
13698;SDS011;6921;53.642;9.956;2023-07-31T09:21:06;2.03;;;1.70;;
13698;SDS011;6921;53.642;9.956;2023-07-31T09:23:10;1.90;;;1.80;;
13698;SDS011;6921;53.642;9.956;2023-07-31T09:25:15;2.58;;;2.13;;
13698;SDS011;6921;53.642;9.956;2023-07-31T09:27:19;2.33;;;1.80;;
13698;SDS011;6921;53.642;9.956;2023-07-31T09:29:24;2.33;;;1.65;;
13698;SDS011;6921;53.642;9.956;2023-07-31T09:31:32;1.90;;;1.50;;
13698;SDS011;6921;53.642;9.956;2023-07-31T09:33:53;1.23;;;1.13;;
13698;SDS011;6921;53.642;9.956;2023-07-31T09:35:58;1.80;;;1.48;;
13698;SDS011;6921;53.642;9.956;2023-07-31T09:38:03;2.03;;;1.67;;
13698;SDS011;6921;53.642;9.956;2023-07-31T09:40:07;1.65;;;1.50;;
13698;SDS011;6921;53.642;9.956;2023-07-31T09:42:16;1.50;;;1.40;;
13698;SDS011;6921;53.642;9.956;2023-07-31T09:44:37;2.55;;;1.58;;
13698;SDS011;6921;53.642;9.956;2023-07-31T09:46:42;1.85;;;1.30;;
13698;SDS011;6921;53.642;9.956;2023-07-31T09:48:46;2.38;;;1.77;;
13698;SDS011;6921;53.642;9.956;2023-07-31T09:50:50;1.63;;;1.52;;
13698;SDS011;6921;53.642;9.956;2023-07-31T09:52:53;1.58;;;1.48;;
13698;SDS011;6921;53.642;9.956;2023-07-31T09:54:56;2.00;;;1.48;;
13698;SDS011;6921;53.642;9.956;2023-07-31T09:57:01;2.53;;;1.75;;
13698;SDS011;6921;53.642;9.956;2023-07-31T09:59:13;1.50;;;1.40;;
13698;SDS011;6921;53.642;9.956;2023-07-31T10:01:22;1.30;;;1.20;;
13698;SDS011;6921;53.642;9.956;2023-07-31T10:03:25;1.63;;;1.35;;
13698;SDS011;6921;53.642;9.956;2023-07-31T10:05:32;1.65;;;1.30;;
13698;SDS011;6921;53.642;9.956;2023-07-31T10:07:37;1.63;;;1.52;;
13698;SDS011;6921;53.642;9.956;2023-07-31T10:09:42;2.45;;;1.73;;
13698;SDS011;6921;53.642;9.956;2023-07-31T10:11:46;1.70;;;1.60;;
13698;SDS011;6921;53.642;9.956;2023-07-31T10:13:54;2.45;;;1.80;;
13698;SDS011;6921;53.642;9.956;2023-07-31T10:16:00;1.60;;;1.48;;
13698;SDS011;6921;53.642;9.956;2023-07-31T10:18:05;1.85;;;1.55;;
13698;SDS011;6921;53.642;9.956;2023-07-31T10:20:09;1.75;;;1.60;;
13698;SDS011;6921;53.642;9.956;2023-07-31T10:22:13;1.77;;;1.65;;
13698;SDS011;6921;53.642;9.956;2023-07-31T10:24:17;2.15;;;1.63;;
13698;SDS011;6921;53.642;9.956;2023-07-31T10:26:22;1.70;;;1.58;;
13698;SDS011;6921;53.642;9.956;2023-07-31T10:28:27;1.77;;;1.58;;
13698;SDS011;6921;53.642;9.956;2023-07-31T10:30:34;1.60;;;1.50;;
13698;SDS011;6921;53.642;9.956;2023-07-31T10:32:41;1.70;;;1.60;;
13698;SDS011;6921;53.642;9.956;2023-07-31T10:34:46;2.08;;;1.60;;
13698;SDS011;6921;53.642;9.956;2023-07-31T10:36:51;1.80;;;1.70;;
13698;SDS011;6921;53.642;9.956;2023-07-31T10:39:33;1.67;;;1.50;;
13698;SDS011;6921;53.642;9.956;2023-07-31T10:41:37;1.98;;;1.70;;
13698;SDS011;6921;53.642;9.956;2023-07-31T10:43:45;1.30;;;1.17;;
13698;SDS011;6921;53.642;9.956;2023-07-31T10:45:49;1.27;;;1.00;;
13698;SDS011;6921;53.642;9.956;2023-07-31T10:47:59;1.70;;;1.30;;
13698;SDS011;6921;53.642;9.956;2023-07-31T10:50:19;3.25;;;1.35;;
13698;SDS011;6921;53.642;9.956;2023-07-31T10:52:23;1.02;;;1.02;;
13698;SDS011;6921;53.642;9.956;2023-07-31T10:54:29;1.63;;;1.23;;
13698;SDS011;6921;53.642;9.956;2023-07-31T10:56:36;1.85;;;1.27;;
13698;SDS011;6921;53.642;9.956;2023-07-31T10:58:42;1.60;;;1.50;;
13698;SDS011;6921;53.642;9.956;2023-07-31T11:00:49;1.52;;;1.13;;
13698;SDS011;6921;53.642;9.956;2023-07-31T11:02:56;1.50;;;1.40;;
13698;SDS011;6921;53.642;9.956;2023-07-31T11:05:07;1.00;;;0.90;;
13698;SDS011;6921;53.642;9.956;2023-07-31T11:07:11;0.98;;;0.95;;
13698;SDS011;6921;53.642;9.956;2023-07-31T11:09:15;0.60;;;0.60;;
13698;SDS011;6921;53.642;9.956;2023-07-31T11:11:20;0.50;;;0.50;;
13698;SDS011;6921;53.642;9.956;2023-07-31T11:13:24;1.30;;;0.47;;
13698;SDS011;6921;53.642;9.956;2023-07-31T11:15:27;1.20;;;0.70;;
13698;SDS011;6921;53.642;9.956;2023-07-31T11:17:30;0.60;;;0.60;;
13698;SDS011;6921;53.642;9.956;2023-07-31T11:19:35;1.17;;;0.60;;
13698;SDS011;6921;53.642;9.956;2023-07-31T11:21:42;0.98;;;0.68;;
13698;SDS011;6921;53.642;9.956;2023-07-31T11:23:46;0.50;;;0.50;;
13698;SDS011;6921;53.642;9.956;2023-07-31T11:25:50;0.52;;;0.50;;
13698;SDS011;6921;53.642;9.956;2023-07-31T11:27:53;1.15;;;0.80;;
13698;SDS011;6921;53.642;9.956;2023-07-31T11:30:01;0.40;;;0.40;;
13698;SDS011;6921;53.642;9.956;2023-07-31T11:32:04;0.50;;;0.50;;
13698;SDS011;6921;53.642;9.956;2023-07-31T11:34:08;0.70;;;0.70;;
13698;SDS011;6921;53.642;9.956;2023-07-31T11:36:14;1.85;;;0.57;;
13698;SDS011;6921;53.642;9.956;2023-07-31T11:38:22;0.57;;;0.35;;
13698;SDS011;6921;53.642;9.956;2023-07-31T11:40:26;1.27;;;0.50;;
13698;SDS011;6921;53.642;9.956;2023-07-31T11:42:34;1.80;;;0.70;;
13698;SDS011;6921;53.642;9.956;2023-07-31T11:44:40;0.77;;;0.70;;
13698;SDS011;6921;53.642;9.956;2023-07-31T11:46:49;2.03;;;0.60;;
13698;SDS011;6921;53.642;9.956;2023-07-31T11:48:55;1.27;;;0.90;;
13698;SDS011;6921;53.642;9.956;2023-07-31T11:51:03;0.80;;;0.80;;
13698;SDS011;6921;53.642;9.956;2023-07-31T11:53:07;0.70;;;0.70;;
13698;SDS011;6921;53.642;9.956;2023-07-31T11:55:14;1.13;;;0.80;;
13698;SDS011;6921;53.642;9.956;2023-07-31T11:57:18;1.67;;;1.00;;
13698;SDS011;6921;53.642;9.956;2023-07-31T11:59:23;0.75;;;0.73;;
13698;SDS011;6921;53.642;9.956;2023-07-31T12:01:27;0.95;;;0.80;;
13698;SDS011;6921;53.642;9.956;2023-07-31T12:03:31;0.50;;;0.50;;
13698;SDS011;6921;53.642;9.956;2023-07-31T12:05:37;1.20;;;0.90;;
13698;SDS011;6921;53.642;9.956;2023-07-31T12:07:43;0.98;;;0.80;;
13698;SDS011;6921;53.642;9.956;2023-07-31T12:09:51;1.40;;;0.80;;
13698;SDS011;6921;53.642;9.956;2023-07-31T12:11:57;1.02;;;0.90;;
13698;SDS011;6921;53.642;9.956;2023-07-31T12:14:03;1.23;;;0.75;;
13698;SDS011;6921;53.642;9.956;2023-07-31T12:16:09;0.82;;;0.82;;
13698;SDS011;6921;53.642;9.956;2023-07-31T12:18:13;2.45;;;0.90;;
13698;SDS011;6921;53.642;9.956;2023-07-31T12:20:17;1.10;;;0.70;;
13698;SDS011;6921;53.642;9.956;2023-07-31T12:22:22;1.10;;;0.88;;
13698;SDS011;6921;53.642;9.956;2023-07-31T12:24:26;1.50;;;0.80;;
13698;SDS011;6921;53.642;9.956;2023-07-31T12:26:33;0.47;;;0.47;;
13698;SDS011;6921;53.642;9.956;2023-07-31T12:28:41;1.38;;;0.70;;
13698;SDS011;6921;53.642;9.956;2023-07-31T12:30:45;0.75;;;0.70;;
13698;SDS011;6921;53.642;9.956;2023-07-31T12:32:49;0.57;;;0.57;;
13698;SDS011;6921;53.642;9.956;2023-07-31T12:34:51;2.15;;;0.68;;
13698;SDS011;6921;53.642;9.956;2023-07-31T12:36:55;0.70;;;0.70;;
13698;SDS011;6921;53.642;9.956;2023-07-31T12:38:58;1.38;;;0.73;;
13698;SDS011;6921;53.642;9.956;2023-07-31T12:41:01;1.25;;;0.77;;
13698;SDS011;6921;53.642;9.956;2023-07-31T12:43:06;0.70;;;0.70;;
13698;SDS011;6921;53.642;9.956;2023-07-31T12:45:11;1.50;;;0.80;;
13698;SDS011;6921;53.642;9.956;2023-07-31T12:47:14;1.77;;;0.60;;
13698;SDS011;6921;53.642;9.956;2023-07-31T12:49:18;1.13;;;0.82;;
13698;SDS011;6921;53.642;9.956;2023-07-31T12:51:21;1.00;;;0.75;;